createdAt,value
2018-03-22T00:00:25.401Z,11.43
2018-03-22T00:02:53.681Z,12.20
2018-03-22T00:05:21.940Z,13.00
2018-03-22T00:07:50.213Z,13.23
2018-03-22T00:10:18.488Z,13.40
2018-03-22T00:12:46.745Z,13.73
2018-03-22T00:15:15.765Z,13.80
2018-03-22T00:17:44.045Z,13.50
2018-03-22T00:20:12.300Z,13.17
2018-03-22T00:22:41.339Z,13.40
2018-03-22T00:25:09.606Z,13.00
2018-03-22T00:27:37.865Z,12.70
2018-03-22T00:30:06.152Z,11.83
2018-03-22T00:32:34.405Z,13.23
2018-03-22T00:35:03.442Z,13.47
2018-03-22T00:37:31.719Z,12.50
2018-03-22T00:39:59.972Z,12.53
2018-03-22T00:42:28.223Z,13.47
2018-03-22T00:44:57.276Z,12.60
2018-03-22T00:47:25.534Z,11.70
2018-03-22T00:49:53.807Z,12.90
2018-03-22T00:52:22.067Z,11.63
2018-03-22T00:54:50.331Z,13.30
2018-03-22T00:57:18.608Z,12.90
2018-03-22T00:59:46.866Z,14.53
2018-03-22T01:02:15.896Z,13.30
2018-03-22T01:04:44.172Z,12.40
2018-03-22T01:07:12.428Z,13.77
2018-03-22T01:09:40.696Z,12.27
2018-03-22T01:12:09.740Z,13.97
2018-03-22T01:14:37.995Z,11.93
2018-03-22T01:17:06.259Z,12.70
2018-03-22T01:19:34.531Z,13.30
2018-03-22T01:22:04.077Z,14.40
2018-03-22T01:24:32.325Z,13.40
2018-03-22T01:27:00.632Z,14.53
2018-03-22T01:29:28.900Z,12.90
2018-03-22T01:31:57.151Z,12.87
2018-03-22T01:34:25.432Z,13.27
2018-03-22T01:36:53.692Z,12.93
2018-03-22T01:39:21.959Z,13.47
2018-03-22T01:41:50.236Z,12.50
2018-03-22T01:44:18.496Z,12.77
2018-03-22T01:46:47.533Z,13.00
2018-03-22T01:49:15.786Z,11.80
2018-03-22T01:51:44.063Z,12.13
2018-03-22T01:54:12.336Z,11.60
2018-03-22T01:56:40.592Z,10.70
2018-03-22T01:59:09.617Z,12.20
2018-03-22T02:01:37.888Z,13.60
2018-03-22T02:04:06.149Z,12.20
2018-03-22T02:06:35.219Z,11.63
2018-03-22T02:09:03.476Z,12.20
2018-03-22T02:11:31.732Z,11.57
2018-03-22T02:14:00.013Z,12.43
2018-03-22T02:16:28.306Z,12.00
2018-03-22T02:18:56.532Z,13.40
2018-03-22T02:21:24.817Z,11.20
2018-03-22T02:23:53.076Z,12.07
2018-03-22T02:26:22.099Z,11.47
2018-03-22T02:28:50.368Z,12.03
2018-03-22T02:31:18.627Z,12.13
2018-03-22T02:33:46.893Z,11.57
2018-03-22T02:36:15.941Z,11.10
2018-03-22T02:38:44.200Z,12.20
2018-03-22T02:41:12.476Z,12.03
2018-03-22T02:43:40.753Z,12.50
2018-03-22T02:46:09.015Z,11.77
2018-03-22T02:48:37.271Z,12.35
2018-03-22T02:51:06.306Z,11.73
2018-03-22T02:53:34.565Z,13.00
2018-03-22T02:56:02.845Z,11.50
2018-03-22T02:58:31.121Z,11.70
2018-03-22T03:00:59.372Z,13.73
2018-03-22T03:03:27.656Z,12.87
2018-03-22T03:05:55.906Z,12.27
2018-03-22T03:08:24.953Z,11.80
2018-03-22T03:10:53.209Z,11.83
2018-03-22T03:13:21.460Z,12.13
2018-03-22T03:15:50.531Z,12.20
2018-03-22T03:18:19.556Z,13.57
2018-03-22T03:20:48.572Z,11.77
2018-03-22T03:23:16.848Z,12.73
2018-03-22T03:25:45.103Z,12.80
2018-03-22T03:28:13.369Z,13.53
2018-03-22T03:30:42.412Z,12.57
2018-03-22T03:33:10.676Z,13.50
2018-03-22T03:35:38.931Z,12.83
2018-03-22T03:38:07.211Z,11.93
2018-03-22T03:40:35.459Z,12.90
2018-03-22T03:43:04.503Z,12.67
2018-03-22T03:45:32.770Z,13.17
2018-03-22T03:48:01.021Z,13.60
2018-03-22T03:50:29.304Z,13.20
2018-03-22T03:52:57.571Z,13.50
2018-03-22T03:55:26.586Z,13.40
2018-03-22T03:57:54.859Z,13.57
2018-03-22T04:00:23.103Z,12.33
2018-03-22T04:02:52.124Z,12.73
2018-03-22T04:05:20.388Z,12.50
2018-03-22T04:07:48.648Z,12.10
2018-03-22T04:10:17.688Z,13.07
2018-03-22T04:12:45.945Z,12.67
2018-03-22T04:15:14.197Z,14.30
2018-03-22T04:17:43.239Z,13.20
2018-03-22T04:20:11.493Z,14.43
2018-03-22T04:22:39.756Z,13.13
2018-03-22T04:25:08.040Z,13.63
2018-03-22T04:27:36.296Z,13.87
2018-03-22T04:30:05.329Z,14.10
2018-03-22T04:32:33.617Z,13.83
2018-03-22T04:35:01.872Z,13.23
2018-03-22T04:37:30.133Z,14.30
2018-03-22T04:39:58.404Z,12.80
2018-03-22T04:42:26.664Z,12.83
2018-03-22T04:44:55.680Z,13.60
2018-03-22T04:47:23.952Z,13.50
2018-03-22T04:49:52.214Z,13.77
2018-03-22T04:52:21.248Z,13.63
2018-03-22T04:54:49.495Z,13.07
2018-03-22T04:57:17.791Z,12.27
2018-03-22T04:59:46.066Z,12.60
2018-03-22T05:02:15.156Z,12.37
2018-03-22T05:04:43.420Z,14.40
2018-03-22T05:07:11.692Z,12.37
2018-03-22T05:09:39.952Z,14.87
2018-03-22T05:12:08.967Z,13.17
2018-03-22T05:14:37.252Z,13.20
2018-03-22T05:17:05.516Z,12.90
2018-03-22T05:19:33.771Z,12.93
2018-03-22T05:22:02.822Z,13.30
2018-03-22T05:24:31.099Z,14.37
2018-03-22T05:26:59.356Z,14.03
2018-03-22T05:29:27.648Z,14.83
2018-03-22T05:31:55.897Z,12.60
2018-03-22T05:34:24.182Z,12.10
2018-03-22T05:36:52.432Z,15.47
2018-03-22T05:39:21.455Z,14.00
2018-03-22T05:41:49.723Z,15.10
2018-03-22T05:44:17.988Z,15.07
2018-03-22T05:46:46.265Z,13.80
2018-03-22T05:49:14.524Z,13.93
2018-03-22T05:51:43.545Z,13.10
2018-03-22T05:54:11.826Z,14.87
2018-03-22T05:56:40.932Z,13.23
2018-03-22T05:59:09.212Z,13.50
2018-03-22T06:01:37.471Z,15.23
2018-03-22T06:04:05.753Z,12.90
2018-03-22T06:06:34.029Z,13.17
2018-03-22T06:09:02.304Z,13.80
2018-03-22T06:11:30.580Z,14.20
2018-03-22T06:13:58.841Z,13.10
2018-03-22T06:16:27.111Z,13.53
2018-03-22T06:18:55.393Z,13.60
2018-03-22T06:21:23.683Z,13.53
2018-03-22T06:23:51.942Z,16.20
2018-03-22T06:26:20.200Z,13.23
2018-03-22T06:28:49.246Z,13.67
2018-03-22T06:31:17.520Z,12.60
2018-03-22T06:33:45.788Z,14.67
2018-03-22T06:36:14.060Z,12.83
2018-03-22T06:38:42.328Z,12.40
2018-03-22T06:41:10.584Z,11.90
2018-03-22T06:43:39.623Z,11.67
2018-03-22T06:46:07.884Z,12.07
2018-03-22T06:48:36.146Z,11.90
2018-03-22T06:51:04.412Z,12.67
2018-03-22T06:53:32.685Z,13.80
2018-03-22T06:56:01.703Z,13.07
2018-03-22T06:58:29.972Z,14.10
2018-03-22T07:00:58.231Z,12.83
2018-03-22T07:03:27.261Z,14.67
2018-03-22T07:05:55.532Z,13.03
2018-03-22T07:08:23.808Z,14.00
2018-03-22T07:10:52.056Z,13.97
2018-03-22T07:13:20.316Z,14.27
2018-03-22T07:15:49.361Z,13.90
2018-03-22T07:18:17.657Z,13.40
2018-03-22T07:20:45.911Z,14.30
2018-03-22T07:23:14.476Z,14.30
2018-03-22T07:25:42.737Z,13.77
2018-03-22T07:28:10.993Z,12.73
2018-03-22T07:30:40.040Z,12.67
2018-03-22T07:33:08.308Z,13.23
2018-03-22T07:35:36.575Z,14.00
2018-03-22T07:38:04.854Z,13.13
2018-03-22T07:40:33.111Z,13.13
2018-03-22T07:43:06.920Z,13.53
2018-03-22T07:45:35.167Z,13.70
2018-03-22T07:48:04.204Z,13.00
2018-03-22T07:50:32.493Z,14.13
2018-03-22T07:53:00.748Z,12.70
2018-03-22T07:55:29.009Z,14.23
2018-03-22T07:57:58.047Z,13.60
2018-03-22T08:00:26.304Z,14.10
2018-03-22T08:03:02.128Z,14.40
2018-03-22T08:05:31.144Z,12.40
2018-03-22T08:07:59.408Z,13.80
2018-03-22T08:10:27.712Z,13.03
2018-03-22T08:12:55.979Z,13.93
2018-03-22T08:15:24.231Z,13.97
2018-03-22T08:17:52.505Z,13.47
2018-03-22T08:20:21.532Z,12.87
2018-03-22T08:22:49.808Z,12.50
2018-03-22T08:25:18.140Z,11.93
2018-03-22T08:27:47.166Z,11.90
2018-03-22T08:30:15.475Z,12.30
2018-03-22T08:32:43.732Z,12.37
2018-03-22T08:35:11.984Z,10.87
2018-03-22T08:37:40.260Z,11.25
2018-03-22T08:40:08.512Z,9.33
2018-03-22T08:42:37.556Z,11.13
2018-03-22T08:45:05.847Z,10.60
2018-03-22T08:47:34.097Z,9.32
2018-03-22T08:50:02.349Z,10.27
2018-03-22T08:52:30.612Z,9.40
2018-03-22T08:54:59.634Z,9.03
2018-03-22T08:57:27.899Z,9.43
2018-03-22T08:59:56.186Z,9.20
2018-03-22T09:02:24.439Z,10.07
2018-03-22T09:04:53.628Z,9.50
2018-03-22T09:07:22.640Z,8.90
2018-03-22T09:09:50.912Z,7.47
2018-03-22T09:12:19.167Z,6.80
2018-03-22T09:14:48.183Z,7.80
2018-03-22T09:17:16.455Z,7.77
2018-03-22T09:19:45.481Z,7.43
2018-03-22T09:22:13.720Z,5.77
2018-03-22T09:24:42.764Z,6.50
2018-03-22T09:27:11.016Z,5.60
2018-03-22T09:29:39.264Z,5.40
2018-03-22T09:32:08.305Z,5.10
2018-03-22T09:34:36.547Z,5.53
2018-03-22T09:37:04.799Z,4.80
2018-03-22T09:39:33.836Z,4.70
2018-03-22T09:42:02.085Z,4.80
2018-03-22T09:44:30.355Z,4.23
2018-03-22T09:46:59.387Z,3.90
2018-03-22T09:49:27.644Z,4.10
2018-03-22T09:51:55.900Z,4.67
2018-03-22T09:54:24.927Z,3.80
2018-03-22T09:56:53.177Z,3.90
2018-03-22T09:59:21.427Z,4.47
2018-03-22T10:01:49.693Z,4.20
2018-03-22T10:04:19.456Z,3.97
2018-03-22T10:06:47.719Z,3.23
2018-03-22T10:09:15.972Z,4.30
2018-03-22T10:11:44.987Z,4.20
2018-03-22T10:14:13.252Z,3.70
2018-03-22T10:16:42.262Z,3.57
2018-03-22T10:19:10.539Z,3.00
2018-03-22T10:21:38.798Z,3.47
2018-03-22T10:24:07.812Z,3.40
2018-03-22T10:26:36.080Z,3.20
2018-03-22T10:29:04.327Z,2.50
2018-03-22T10:31:33.364Z,2.97
2018-03-22T10:34:01.632Z,3.00
2018-03-22T10:36:29.881Z,2.90
2018-03-22T10:38:58.917Z,2.70
2018-03-22T10:41:27.172Z,2.67
2018-03-22T10:43:55.431Z,2.70
2018-03-22T10:46:24.470Z,2.60
2018-03-22T10:48:52.719Z,2.60
2018-03-22T10:51:21.008Z,2.40
2018-03-22T10:53:49.256Z,1.90
2018-03-22T10:56:18.288Z,1.97
2018-03-22T10:58:46.555Z,1.87
2018-03-22T11:01:20.252Z,2.10
2018-03-22T11:03:53.487Z,1.80
2018-03-22T11:06:22.516Z,1.40
2018-03-22T11:08:51.533Z,1.30
2018-03-22T11:11:19.804Z,1.43
2018-03-22T11:13:48.064Z,1.30
2018-03-22T11:16:17.112Z,1.40
2018-03-22T11:18:45.364Z,1.30
2018-03-22T11:21:13.650Z,1.30
2018-03-22T11:23:41.898Z,0.83
2018-03-22T11:26:10.148Z,0.93
2018-03-22T11:28:39.175Z,1.10
2018-03-22T11:31:07.433Z,0.90
2018-03-22T11:33:35.760Z,1.20
2018-03-22T11:36:04.025Z,0.90
2018-03-22T11:38:32.276Z,0.87
2018-03-22T11:41:00.540Z,0.67
2018-03-22T11:43:28.817Z,0.63
2018-03-22T11:45:57.064Z,0.50
2018-03-22T11:48:25.492Z,0.70
2018-03-22T11:50:53.782Z,0.70
2018-03-22T11:53:22.048Z,0.63
2018-03-22T11:55:50.304Z,0.70
2018-03-22T11:58:18.553Z,0.47
2018-03-22T12:00:46.853Z,0.70
2018-03-22T12:03:15.859Z,0.47
2018-03-22T12:05:44.112Z,0.70
2018-03-22T12:08:13.224Z,0.77
2018-03-22T12:10:41.480Z,0.60
2018-03-22T12:13:10.502Z,0.50
2018-03-22T12:15:38.784Z,0.53
2018-03-22T12:18:07.035Z,0.40
2018-03-22T12:20:36.059Z,0.30
2018-03-22T12:23:04.307Z,0.50
2018-03-22T12:25:32.556Z,0.40
2018-03-22T12:28:01.609Z,0.60
2018-03-22T12:30:29.870Z,0.50
2018-03-22T12:32:58.132Z,0.97
2018-03-22T12:35:26.423Z,0.43
2018-03-22T12:37:54.675Z,0.43
2018-03-22T12:40:22.924Z,0.50
2018-03-22T12:42:51.187Z,0.50
2018-03-22T12:45:19.435Z,0.40
2018-03-22T12:47:47.684Z,0.50
2018-03-22T12:50:15.987Z,0.60
2018-03-22T12:52:45.477Z,0.47
2018-03-22T12:55:13.753Z,0.33
2018-03-22T12:57:41.999Z,0.43
2018-03-22T13:00:11.036Z,0.40
2018-03-22T13:02:39.283Z,0.40
2018-03-22T13:05:07.551Z,0.25
2018-03-22T13:07:35.832Z,0.37
2018-03-22T13:10:04.870Z,0.40
2018-03-22T13:12:33.112Z,0.40
2018-03-22T13:15:01.369Z,0.60
2018-03-22T13:17:30.397Z,0.53
2018-03-22T13:19:58.686Z,0.60
2018-03-22T13:22:27.784Z,0.80
2018-03-22T13:24:56.064Z,0.73
2018-03-22T13:27:24.317Z,0.77
2018-03-22T13:29:52.623Z,0.80
2018-03-22T13:32:20.860Z,1.03
2018-03-22T13:34:49.106Z,0.90
2018-03-22T13:37:18.127Z,0.90
2018-03-22T13:39:46.405Z,2.03
2018-03-22T13:42:14.656Z,0.70
2018-03-22T13:44:43.698Z,1.40
2018-03-22T13:47:11.940Z,1.00
2018-03-22T13:49:40.197Z,1.10
2018-03-22T13:52:09.224Z,1.00
2018-03-22T13:54:37.492Z,1.10
2018-03-22T13:57:05.760Z,1.00
2018-03-22T13:59:34.797Z,1.23
2018-03-22T14:02:03.064Z,1.90
2018-03-22T14:04:31.326Z,2.40
2018-03-22T14:06:59.603Z,1.80
2018-03-22T14:09:27.875Z,1.63
2018-03-22T14:11:56.118Z,1.70
2018-03-22T14:14:25.139Z,1.63
2018-03-22T14:16:53.399Z,1.47
2018-03-22T14:19:21.668Z,2.20
2018-03-22T14:21:50.679Z,1.93
2018-03-22T14:24:18.983Z,1.90
2018-03-22T14:26:47.224Z,1.40
2018-03-22T14:29:15.491Z,1.60
2018-03-22T14:31:44.511Z,2.17
2018-03-22T14:34:12.764Z,4.13
2018-03-22T14:36:41.808Z,1.83
2018-03-22T14:39:10.064Z,1.90
2018-03-22T14:41:38.316Z,2.33
2018-03-22T14:44:06.597Z,2.55
2018-03-22T14:46:34.852Z,2.20
2018-03-22T14:49:03.868Z,2.20
2018-03-22T14:51:32.140Z,2.80
2018-03-22T14:54:00.406Z,2.33
2018-03-22T14:56:29.422Z,2.47
2018-03-22T14:58:57.707Z,2.73
2018-03-22T15:01:26.009Z,2.77
2018-03-22T15:03:54.215Z,2.03
2018-03-22T15:06:23.298Z,2.97
2018-03-22T15:08:51.555Z,2.43
2018-03-22T15:11:19.817Z,2.63
2018-03-22T15:13:48.091Z,2.50
2018-03-22T15:16:16.380Z,3.17
2018-03-22T15:18:44.652Z,2.92
2018-03-22T15:21:12.916Z,2.90
2018-03-22T15:23:41.177Z,3.10
2018-03-22T15:26:09.423Z,3.03
2018-03-22T15:28:38.458Z,3.20
2018-03-22T15:31:06.710Z,3.40
2018-03-22T15:33:34.980Z,3.30
2018-03-22T15:36:04.137Z,3.30
2018-03-22T15:38:33.207Z,3.67
2018-03-22T15:41:01.461Z,3.60
2018-03-22T15:43:29.744Z,3.67
2018-03-22T15:45:58.180Z,3.53
2018-03-22T15:48:27.579Z,4.40
2018-03-22T15:50:55.920Z,2.93
2018-03-22T15:53:24.185Z,4.37
2018-03-22T15:55:52.469Z,3.10
2018-03-22T15:58:20.867Z,3.60
2018-03-22T16:00:49.148Z,3.50
2018-03-22T16:03:17.435Z,3.17
2018-03-22T16:05:45.750Z,3.17
2018-03-22T16:08:14.034Z,3.80
2018-03-22T16:10:42.445Z,3.50
2018-03-22T16:13:11.888Z,4.00
2018-03-22T16:15:40.176Z,5.23
2018-03-22T16:18:08.456Z,3.37
2018-03-22T16:20:36.757Z,4.13
2018-03-22T16:23:05.135Z,3.20
2018-03-22T16:25:33.842Z,3.20
2018-03-22T16:28:02.233Z,2.60
2018-03-22T16:30:31.805Z,2.83
2018-03-22T16:33:02.031Z,3.03
2018-03-22T16:35:31.359Z,2.70
2018-03-22T16:38:01.474Z,3.13
2018-03-22T16:40:31.047Z,2.00
2018-03-22T16:43:00.450Z,2.97
2018-03-22T16:45:29.341Z,2.43
2018-03-22T16:47:58.067Z,2.60
2018-03-22T16:50:27.399Z,2.40
2018-03-22T16:52:56.591Z,2.83
2018-03-22T16:55:26.131Z,3.00
2018-03-22T16:57:54.837Z,2.30
2018-03-22T17:00:23.606Z,5.73
2018-03-22T17:02:52.830Z,2.70
2018-03-22T17:05:22.718Z,2.60
2018-03-22T17:07:51.717Z,2.60
2018-03-22T17:10:20.626Z,2.07
2018-03-22T17:12:50.429Z,1.30
2018-03-22T17:15:20.396Z,0.90
2018-03-22T17:17:49.786Z,0.70
2018-03-22T17:20:19.540Z,0.53
2018-03-22T17:22:50.296Z,0.70
2018-03-22T17:25:19.989Z,0.73
2018-03-22T17:27:50.637Z,0.80
2018-03-22T17:30:20.579Z,0.73
2018-03-22T17:32:50.502Z,0.80
2018-03-22T17:35:20.650Z,1.07
2018-03-22T17:37:50.670Z,1.37
2018-03-22T17:40:20.694Z,0.90
2018-03-22T17:42:51.857Z,0.60
2018-03-22T17:45:21.581Z,0.70
2018-03-22T17:47:51.699Z,0.87
2018-03-22T17:50:21.678Z,0.60
2018-03-22T17:52:52.369Z,1.00
2018-03-22T17:55:22.239Z,0.73
2018-03-22T17:57:53.299Z,0.90
2018-03-22T18:00:23.123Z,0.80
2018-03-22T18:02:53.158Z,1.30
2018-03-22T18:05:23.013Z,1.07
2018-03-22T18:07:53.563Z,1.23
2018-03-22T18:10:24.287Z,1.17
2018-03-22T18:12:55.051Z,1.47
2018-03-22T18:15:24.800Z,1.40
2018-03-22T18:17:54.936Z,1.50
2018-03-22T18:20:24.945Z,1.70
2018-03-22T18:22:54.841Z,1.80
2018-03-22T18:25:24.908Z,2.20
2018-03-22T18:27:54.951Z,2.03
2018-03-22T18:30:24.786Z,2.10
2018-03-22T18:32:54.585Z,2.60
2018-03-22T18:35:24.654Z,2.93
2018-03-22T18:37:54.535Z,3.27
2018-03-22T18:40:24.428Z,2.13
2018-03-22T18:42:54.366Z,1.90
2018-03-22T18:45:24.470Z,2.13
2018-03-22T18:47:54.890Z,3.10
2018-03-22T18:50:24.740Z,2.30
2018-03-22T18:52:54.677Z,2.80
2018-03-22T18:55:24.603Z,3.13
2018-03-22T18:57:54.603Z,3.60
2018-03-22T19:00:25.294Z,4.40
2018-03-22T19:02:56.073Z,4.90
2018-03-22T19:05:26.558Z,4.07
2018-03-22T19:07:59.842Z,3.70
2018-03-22T19:10:30.712Z,4.93
2018-03-22T19:13:01.622Z,4.60
2018-03-22T19:15:32.338Z,5.50
2018-03-22T19:18:01.685Z,4.63
2018-03-22T19:20:31.047Z,4.90
2018-03-22T19:23:00.365Z,5.17
2018-03-22T19:25:29.779Z,4.53
2018-03-22T19:27:59.070Z,5.37
2018-03-22T19:30:28.360Z,4.70
2018-03-22T19:32:59.764Z,4.85
2018-03-22T19:35:29.776Z,5.10
2018-03-22T19:37:59.290Z,5.10
2018-03-22T19:40:28.615Z,5.60
2018-03-22T19:43:00.954Z,5.18
2018-03-22T19:45:31.865Z,5.00
2018-03-22T19:48:01.699Z,4.10
2018-03-22T19:50:33.246Z,4.77
2018-03-22T19:53:03.352Z,4.77
2018-03-22T19:55:33.908Z,5.10
2018-03-22T19:58:03.959Z,5.93
2018-03-22T20:00:33.857Z,5.70
2018-03-22T20:03:03.273Z,6.50
2018-03-22T20:05:33.408Z,5.50
2018-03-22T20:08:03.244Z,5.50
2018-03-22T20:10:33.251Z,6.57
2018-03-22T20:13:03.362Z,5.83
2018-03-22T20:15:33.995Z,5.07
2018-03-22T20:18:03.830Z,5.63
2018-03-22T20:20:34.472Z,6.90
2018-03-22T20:23:05.400Z,5.83
2018-03-22T20:25:36.250Z,5.90
2018-03-22T20:28:07.014Z,5.73
2018-03-22T20:30:37.066Z,6.53
2018-03-22T20:33:07.994Z,6.77
2018-03-22T20:35:37.909Z,5.97
2018-03-22T20:38:07.878Z,5.53
2018-03-22T20:40:38.486Z,7.23
2018-03-22T20:43:09.240Z,6.70
2018-03-22T20:45:39.887Z,5.70
2018-03-22T20:48:10.083Z,6.00
2018-03-22T20:50:40.748Z,6.37
2018-03-22T20:53:10.765Z,5.83
2018-03-22T20:55:40.766Z,5.37
2018-03-22T20:58:10.684Z,6.10
2018-03-22T21:00:40.587Z,6.37
2018-03-22T21:03:12.213Z,5.93
2018-03-22T21:05:41.999Z,7.30
2018-03-22T21:08:11.971Z,5.47
2018-03-22T21:10:42.655Z,6.17
2018-03-22T21:13:12.440Z,6.20
2018-03-22T21:15:43.057Z,5.70
2018-03-22T21:18:12.868Z,5.50
2018-03-22T21:20:43.560Z,5.80
2018-03-22T21:23:13.532Z,6.20
2018-03-22T21:25:43.311Z,6.23
2018-03-22T21:28:13.126Z,6.17
2018-03-22T21:30:43.990Z,7.47
2018-03-22T21:33:13.860Z,6.00
2018-03-22T21:35:43.992Z,5.97
2018-03-22T21:38:14.804Z,6.00
2018-03-22T21:40:44.768Z,6.83
2018-03-22T21:43:14.841Z,6.90
2018-03-22T21:45:44.610Z,7.23
2018-03-22T21:48:14.509Z,8.00
2018-03-22T21:50:51.184Z,8.80
2018-03-22T21:53:21.248Z,7.60
2018-03-22T21:55:52.611Z,8.50
2018-03-22T21:58:22.483Z,8.50
2018-03-22T22:00:52.446Z,9.57
2018-03-22T22:03:22.505Z,10.00
2018-03-22T22:05:52.031Z,8.07
2018-03-22T22:08:22.204Z,7.23
2018-03-22T22:10:52.490Z,11.37
2018-03-22T22:13:20.972Z,9.53
2018-03-22T22:15:50.094Z,9.47
2018-03-22T22:18:18.423Z,9.73
2018-03-22T22:20:48.223Z,9.30
2018-03-22T22:23:16.482Z,7.10
2018-03-22T22:25:44.732Z,7.70
2018-03-22T22:28:13.780Z,10.13
2018-03-22T22:30:42.051Z,8.33
2018-03-22T22:33:10.302Z,9.20
2018-03-22T22:35:38.573Z,10.50
2018-03-22T22:38:06.869Z,13.53
2018-03-22T22:40:35.122Z,9.20
2018-03-22T22:43:04.123Z,9.00
2018-03-22T22:45:32.384Z,8.13
2018-03-22T22:48:00.642Z,8.03
2018-03-22T22:50:29.692Z,8.80
2018-03-22T22:52:57.936Z,7.10
2018-03-22T22:55:26.204Z,9.13
2018-03-22T22:57:54.491Z,9.60
2018-03-22T23:00:22.752Z,8.57
2018-03-22T23:02:51.009Z,9.83
2018-03-22T23:05:20.054Z,9.35
2018-03-22T23:07:48.334Z,7.60
2018-03-22T23:10:16.569Z,7.80
2018-03-22T23:12:45.609Z,8.83
2018-03-22T23:15:13.862Z,7.80
2018-03-22T23:17:42.112Z,8.17
2018-03-22T23:20:11.188Z,10.57
2018-03-22T23:22:39.441Z,10.30
2018-03-22T23:25:07.702Z,20.03
2018-03-22T23:27:35.976Z,13.30
2018-03-22T23:30:04.232Z,12.27
2018-03-22T23:32:32.505Z,11.43
2018-03-22T23:35:00.771Z,12.30
2018-03-22T23:37:29.036Z,9.70
2018-03-22T23:39:58.068Z,8.90
2018-03-22T23:42:26.347Z,7.50
2018-03-22T23:44:54.605Z,6.27
2018-03-22T23:47:22.863Z,6.40
2018-03-22T23:49:51.139Z,6.40
2018-03-22T23:52:19.396Z,8.03
2018-03-22T23:54:48.436Z,8.70
2018-03-22T23:57:16.700Z,6.57
2018-03-22T23:59:44.977Z,7.53
